Terminal Aerodrome Forecast
Issued by NWS

Home | Current Version | Previous Version | Text Only | Print | Product List | Glossary On
Versions: 1 2 3 4 5 6 7 8 9 10 11 12 13 14 15 16 17 18 19 20 21 22 23 24 25 26 27 28 29
000
FTUS46 KMTR 241100 AAA
TAFSFO
TAF AMD
KSFO 241138Z 2412/2518 27007KT P6SM FEW008 SCT010
      TEMPO 2412/2416 BKN005 BKN012
     FM241900 27012KT P6SM FEW015 SCT040 BKN150
     FM242200 28019G25KT P6SM SCT025 BKN035 OVC150
     FM250300 26015KT P6SM -SHRA SCT015 BKN025
     FM250800 26008KT P6SM -SHRA SCT015 OVC025=

USA.gov is the U.S. government's official web portal to all federal, state and local government web resources and services.